Time;durP1;ratioP1;P1;durP2;ratioP2;P2;SDS_P1;SDS_P2;PMS_P1;PMS_P2;Temp;Humidity;BMP_temperature;BMP_pressure;BME280_temperature;BME280_humidity;BME280_pressure;Samples;Min_cycle;Max_cycle;Signal;HPM_P1;HPM_P2
2024/03/22 00:00:06;;;;;;;;;;;;;;;;;;1037207;28;19909;-74
2024/03/22 00:00:36;;;;;;;;;;;;;;;;;;1041443;28;19909;-75
2024/03/22 00:01:07;;;;;;;;;;;;;;;;;;1044260;28;19909;-74
2024/03/22 00:01:37;;;;;;;;;;;;;;;;;;1041393;28;20396;-76
2024/03/22 00:02:09;;;;;;;;;;;;;;;;;;1036885;28;20000;-74
2024/03/22 00:02:39;;;;;;;;;;;;;;;;;;1037899;28;19913;-74
2024/03/22 00:03:09;;;;;;;;;;;;;;;;;;1042688;28;20011;-74
2024/03/22 00:03:40;;;;;;;;;;;;;;;;;;1044730;28;20007;-74
2024/03/22 00:04:10;;;;;;;;;;;;;;;;;;1042859;28;20502;-74
2024/03/22 00:04:41;;;;;;;;;;;;;;;;;;1043490;28;19932;-74
2024/03/22 00:05:11;;;;;;;;;;;;;;;;;;1043132;28;19908;-73
2024/03/22 00:05:41;;;;;;;;;;;;;;;;;;1044729;28;20467;-74
2024/03/22 00:06:12;;;;;;;;;;;;;;;;;;1044035;28;20412;-74
2024/03/22 00:06:42;;;;;;;;;;;;;;;;;;1047360;28;19999;-75
2024/03/22 00:07:12;;;;;;;;;;;;;;;;;;1043281;28;19959;-75
2024/03/22 00:07:43;;;;;;;;;;;;;;;;;;1038400;28;19909;-74
2024/03/22 00:08:13;;;;;;;;;;;;;;;;;;1036771;28;20276;-74
2024/03/22 00:08:43;;;;;;;;;;;;;;;;;;1038562;28;19991;-75
2024/03/22 00:09:13;;;;;;;;;;;;;;;;;;1040717;28;20007;-75
2024/03/22 00:09:44;;;;;;;;;;;;;;;;;;1040310;28;19908;-74
2024/03/22 00:10:14;;;;;;;;;;;;;;;;;;1040677;28;20337;-75
2024/03/22 00:10:44;;;;;;;;;;;;;;;;;;1040881;28;20366;-74
2024/03/22 00:11:15;;;;;;;;;;;;;;;;;;1040612;28;20421;-75
2024/03/22 00:11:45;;;;;;;;;;;;;;;;;;1039824;28;20297;-74
2024/03/22 00:12:15;;;;;;;;;;;;;;;;;;1040557;28;19912;-73
2024/03/22 00:12:46;;;;;;;;;;;;;;;;;;1040001;28;19955;-73
2024/03/22 00:13:16;;;;;;;;;;;;;;;;;;1042470;28;19915;-74
2024/03/22 00:13:46;;;;;;;;;;;;;;;;;;1046688;28;19909;-74
2024/03/22 00:14:16;;;;;;;;;;;;;;;;;;1046721;28;20387;-74
2024/03/22 00:14:47;;;;;;;;;;;;;;;;;;1046440;28;19952;-75
2024/03/22 00:15:17;;;;;;;;;;;;;;;;;;1042611;28;20007;-74
2024/03/22 00:15:47;;;;;;;;;;;;;;;;;;1039677;28;19913;-73
2024/03/22 00:16:17;;;;;;;;;;;;;;;;;;1040565;28;20388;-74
2024/03/22 00:16:48;;;;;;;;;;;;;;;;;;1040931;28;19915;-75
2024/03/22 00:17:18;;;;;;;;;;;;;;;;;;1044532;28;19909;-74
2024/03/22 00:17:48;;;;;;;;;;;;;;;;;;1041644;28;19909;-74
2024/03/22 00:18:19;;;;;;;;;;;;;;;;;;1042474;28;19916;-73
2024/03/22 00:18:49;;;;;;;;;;;;;;;;;;1046946;28;19916;-73
2024/03/22 00:19:19;;;;;;;;;;;;;;;;;;1041427;28;20003;-73
2024/03/22 00:19:49;;;;;;;;;;;;;;;;;;1041946;28;19916;-74
2024/03/22 00:20:20;;;;;;;;;;;;;;;;;;1042716;28;19908;-74
2024/03/22 00:20:50;;;;;;;;;;;;;;;;;;1042301;28;19908;-74
2024/03/22 00:21:20;;;;;;;;;;;;;;;;;;1046511;28;20283;-75
2024/03/22 00:21:51;;;;;;;;;;;;;;;;;;1042201;28;19944;-74
2024/03/22 00:22:21;;;;;;;;;;;;;;;;;;1042005;28;19943;-74
2024/03/22 00:22:51;;;;;;;;;;;;;;;;;;1042403;28;20011;-74
2024/03/22 00:23:21;;;;;;;;;;;;;;;;;;1042538;28;19916;-74
2024/03/22 00:23:52;;;;;;;;;;;;;;;;;;1042045;28;19909;-74
2024/03/22 00:24:22;;;;;;;;;;;;;;;;;;1042293;28;19916;-74
2024/03/22 00:24:52;;;;;;;;;;;;;;;;;;1041982;28;19913;-75
2024/03/22 00:25:22;;;;;;;;;;;;;;;;;;1042535;28;20415;-74
2024/03/22 00:25:53;;;;;;;;;;;;;;;;;;1042654;28;20369;-74
2024/03/22 00:26:23;;;;;;;;;;;;;;;;;;1046364;28;20752;-74
2024/03/22 00:26:53;;;;;;;;;;;;;;;;;;1042052;28;19913;-74
2024/03/22 00:27:23;;;;;;;;;;;;;;;;;;1042281;28;19909;-74
2024/03/22 00:27:54;;;;;;;;;;;;;;;;;;1042331;28;19959;-74
2024/03/22 00:28:25;;;;;;;;;;;;;;;;;;1041836;28;20482;-74
2024/03/22 00:28:57;;;;;;;;;;;;;;;;;;1040539;28;19996;-74
2024/03/22 00:29:27;;;;;;;;;;;;;;;;;;1037409;28;19959;-74
2024/03/22 00:29:58;;;;;;;;;;;;;;;;;;1036466;28;19980;-74
2024/03/22 00:30:28;;;;;;;;;;;;;;;;;;1036286;28;19909;-74
2024/03/22 00:30:58;;;;;;;;;;;;;;;;;;1036085;28;19916;-74
2024/03/22 00:31:28;;;;;;;;;;;;;;;;;;1031436;28;19910;-74
2024/03/22 00:31:59;;;;;;;;;;;;;;;;;;1035883;28;19915;-74
2024/03/22 00:32:30;;;;;;;;;;;;;;;;;;1040549;28;19955;-74
2024/03/22 00:33:00;;;;;;;;;;;;;;;;;;1042182;28;20007;-75
2024/03/22 00:33:31;;;;;;;;;;;;;;;;;;1042391;28;19951;-75
2024/03/22 00:34:01;;;;;;;;;;;;;;;;;;1042172;28;19913;-75
2024/03/22 00:34:31;;;;;;;;;;;;;;;;;;1042187;28;19908;-74
2024/03/22 00:35:02;;;;;;;;;;;;;;;;;;1042293;28;20373;-74
2024/03/22 00:35:32;;;;;;;;;;;;;;;;;;1041843;28;19916;-73
2024/03/22 00:36:02;;;;;;;;;;;;;;;;;;1040712;28;20257;-74
2024/03/22 00:36:33;;;;;;;;;;;;;;;;;;1037875;28;19909;-74
2024/03/22 00:37:03;;;;;;;;;;;;;;;;;;1040379;28;19956;-74
2024/03/22 00:37:33;;;;;;;;;;;;;;;;;;1040243;28;19909;-73
2024/03/22 00:38:03;;;;;;;;;;;;;;;;;;1044099;28;19984;-74
2024/03/22 00:38:34;;;;;;;;;;;;;;;;;;1046053;28;19893;-74
2024/03/22 00:39:04;;;;;;;;;;;;;;;;;;1042536;28;20288;-74
2024/03/22 00:39:35;;;;;;;;;;;;;;;;;;1042286;28;19929;-74
2024/03/22 00:40:05;;;;;;;;;;;;;;;;;;1042561;28;20038;-74
2024/03/22 00:40:35;;;;;;;;;;;;;;;;;;1042437;28;20493;-74
2024/03/22 00:41:06;;;;;;;;;;;;;;;;;;1042056;28;20349;-74
2024/03/22 00:41:37;;;;;;;;;;;;;;;;;;1041909;28;20344;-74
2024/03/22 00:42:07;;;;;;;;;;;;;;;;;;1041930;28;19915;-74
2024/03/22 00:42:37;;;;;;;;;;;;;;;;;;1041872;28;19913;-74
2024/03/22 00:43:07;;;;;;;;;;;;;;;;;;1046738;28;19908;-74
2024/03/22 00:43:37;;;;;;;;;;;;;;;;;;1042006;28;20026;-74
2024/03/22 00:44:08;;;;;;;;;;;;;;;;;;1042215;28;19909;-73
2024/03/22 00:44:38;;;;;;;;;;;;;;;;;;1042621;28;19975;-73
2024/03/22 00:45:08;;;;;;;;;;;;;;;;;;1042628;28;19999;-74
2024/03/22 00:45:39;;;;;;;;;;;;;;;;;;1046943;28;20024;-73
2024/03/22 00:46:09;;;;;;;;;;;;;;;;;;1041920;28;19915;-73
2024/03/22 00:46:39;;;;;;;;;;;;;;;;;;1041808;28;19909;-73
2024/03/22 00:47:09;;;;;;;;;;;;;;;;;;1042528;28;20410;-73
2024/03/22 00:47:39;;;;;;;;;;;;;;;;;;1042155;28;19995;-73
2024/03/22 00:48:10;;;;;;;;;;;;;;;;;;1043602;28;19909;-73
2024/03/22 00:48:40;;;;;;;;;;;;;;;;;;1046410;28;20262;-73
2024/03/22 00:49:10;;;;;;;;;;;;;;;;;;1046207;28;19916;-73
2024/03/22 00:49:40;;;;;;;;;;;;;;;;;;1045900;28;19916;-73
2024/03/22 00:50:12;;;;;;;;;;;;;;;;;;1046948;28;19909;-73
2024/03/22 00:50:42;;;;;;;;;;;;;;;;;;1047164;28;19919;-73
2024/03/22 00:51:13;;;;;;;;;;;;;;;;;;1045908;28;19908;-73
2024/03/22 00:51:44;;;;;;;;;;;;;;;;;;1044408;28;19916;-72
2024/03/22 00:52:14;;;;;;;;;;;;;;;;;;1045390;28;19917;-72
2024/03/22 00:52:44;;;;;;;;;;;;;;;;;;1042628;28;20389;-72
2024/03/22 00:53:14;;;;;;;;;;;;;;;;;;1042420;28;20329;-72
2024/03/22 00:53:45;;;;;;;;;;;;;;;;;;1041829;28;19916;-72
2024/03/22 00:54:15;;;;;;;;;;;;;;;;;;1043234;28;20259;-72
2024/03/22 00:54:45;;;;;;;;;;;;;;;;;;1046424;28;19951;-72
2024/03/22 00:55:15;;;;;;;;;;;;;;;;;;1046349;28;20011;-72
2024/03/22 00:55:50;;;;;;;;;;;;;;;;;;1046300;28;20042;-72
2024/03/22 00:56:21;;;;;;;;;;;;;;;;;;1046342;28;19909;-72
2024/03/22 00:56:51;;;;;;;;;;;;;;;;;;1046586;28;20362;-72
2024/03/22 00:57:21;;;;;;;;;;;;;;;;;;1047090;28;20003;-72
2024/03/22 00:57:51;;;;;;;;;;;;;;;;;;1046762;28;20363;-72
2024/03/22 00:58:21;;;;;;;;;;;;;;;;;;1046475;28;20079;-72
2024/03/22 00:58:52;;;;;;;;;;;;;;;;;;1046107;28;19931;-72
2024/03/22 00:59:22;;;;;;;;;;;;;;;;;;1041739;28;20000;-72
2024/03/22 00:59:52;;;;;;;;;;;;;;;;;;1042283;28;20008;-72
2024/03/22 01:00:22;;;;;;;;;;;;;;;;;;1041816;28;19909;-72
2024/03/22 01:00:53;;;;;;;;;;;;;;;;;;1042562;28;19916;-72
2024/03/22 01:01:23;;;;;;;;;;;;;;;;;;1046744;28;19908;-72
2024/03/22 01:01:53;;;;;;;;;;;;;;;;;;1046740;28;19909;-73
2024/03/22 01:02:24;;;;;;;;;;;;;;;;;;1045517;28;19912;-72
2024/03/22 01:02:54;;;;;;;;;;;;;;;;;;1046325;28;19908;-72
2024/03/22 01:03:24;;;;;;;;;;;;;;;;;;1046200;28;19909;-72
2024/03/22 01:03:54;;;;;;;;;;;;;;;;;;1046690;28;19915;-72
2024/03/22 01:04:25;;;;;;;;;;;;;;;;;;1041890;28;19908;-72
2024/03/22 01:04:55;;;;;;;;;;;;;;;;;;1042205;28;20372;-72
2024/03/22 01:05:26;;;;;;;;;;;;;;;;;;1042208;28;19913;-72
2024/03/22 01:05:57;;;;;;;;;;;;;;;;;;1043301;28;19980;-72
2024/03/22 01:06:27;;;;;;;;;;;;;;;;;;1041521;28;19931;-72
2024/03/22 01:06:58;;;;;;;;;;;;;;;;;;1038318;28;19916;-72
2024/03/22 01:07:29;;;;;;;;;;;;;;;;;;1037740;28;20336;-72
2024/03/22 01:07:59;;;;;;;;;;;;;;;;;;1038508;28;19940;-72
2024/03/22 01:08:29;;;;;;;;;;;;;;;;;;1038057;28;19940;-72
2024/03/22 01:08:59;;;;;;;;;;;;;;;;;;1042153;28;19909;-72
2024/03/22 01:09:30;;;;;;;;;;;;;;;;;;1042241;28;20288;-72
2024/03/22 01:10:00;;;;;;;;;;;;;;;;;;1043024;28;19913;-72
2024/03/22 01:10:30;;;;;;;;;;;;;;;;;;1046067;28;19967;-72
2024/03/22 01:11:01;;;;;;;;;;;;;;;;;;1038391;28;19909;-72
2024/03/22 01:11:31;;;;;;;;;;;;;;;;;;1038154;28;19951;-72
2024/03/22 01:12:01;;;;;;;;;;;;;;;;;;1037722;28;19909;-72
2024/03/22 01:12:31;;;;;;;;;;;;;;;;;;1039795;28;20368;-71
2024/03/22 01:13:02;;;;;;;;;;;;;;;;;;1045010;28;19909;-71
2024/03/22 01:13:32;;;;;;;;;;;;;;;;;;1044828;28;20395;-71
2024/03/22 01:14:02;;;;;;;;;;;;;;;;;;1046420;28;19916;-71
2024/03/22 01:14:32;;;;;;;;;;;;;;;;;;1041057;28;20031;-71
2024/03/22 01:15:03;;;;;;;;;;;;;;;;;;1042003;28;19908;-71
2024/03/22 01:15:33;;;;;;;;;;;;;;;;;;1040773;28;19908;-71
2024/03/22 01:16:03;;;;;;;;;;;;;;;;;;1042163;28;20323;-71
2024/03/22 01:16:33;;;;;;;;;;;;;;;;;;1045813;28;19909;-71
2024/03/22 01:17:04;;;;;;;;;;;;;;;;;;1046272;28;20347;-71
2024/03/22 01:17:34;;;;;;;;;;;;;;;;;;1046320;28;19978;-71
2024/03/22 01:18:04;;;;;;;;;;;;;;;;;;1046711;28;19908;-71
2024/03/22 01:18:34;;;;;;;;;;;;;;;;;;1042058;28;19962;-71
2024/03/22 01:19:05;;;;;;;;;;;;;;;;;;1039427;28;20404;-71
2024/03/22 01:19:35;;;;;;;;;;;;;;;;;;1041463;28;19959;-71
2024/03/22 01:20:05;;;;;;;;;;;;;;;;;;1039572;28;19920;-72
2024/03/22 01:20:35;;;;;;;;;;;;;;;;;;1042977;28;20007;-72
2024/03/22 01:21:07;;;;;;;;;;;;;;;;;;1039446;28;19909;-72
2024/03/22 01:21:37;;;;;;;;;;;;;;;;;;1037875;28;20304;-72
2024/03/22 01:22:07;;;;;;;;;;;;;;;;;;1041021;28;19912;-72
2024/03/22 01:22:37;;;;;;;;;;;;;;;;;;1038141;28;20288;-72
2024/03/22 01:23:08;;;;;;;;;;;;;;;;;;1041942;28;19909;-72
2024/03/22 01:23:38;;;;;;;;;;;;;;;;;;1040642;28;19919;-72
2024/03/22 01:24:08;;;;;;;;;;;;;;;;;;1037340;28;20065;-72
2024/03/22 01:24:38;;;;;;;;;;;;;;;;;;1044451;28;20433;-72
2024/03/22 01:25:09;;;;;;;;;;;;;;;;;;1045688;28;19913;-72
2024/03/22 01:25:40;;;;;;;;;;;;;;;;;;1042867;28;19951;-74
2024/03/22 01:26:10;;;;;;;;;;;;;;;;;;1044923;28;19930;-73
2024/03/22 01:26:42;;;;;;;;;;;;;;;;;;1039660;28;19917;-73
2024/03/22 01:27:13;;;;;;;;;;;;;;;;;;1037022;28;19913;-73
2024/03/22 01:27:43;;;;;;;;;;;;;;;;;;1038389;28;19909;-73
2024/03/22 01:28:15;;;;;;;;;;;;;;;;;;1036272;28;19913;-73
2024/03/22 01:28:45;;;;;;;;;;;;;;;;;;1037893;28;20296;-73
2024/03/22 01:29:15;;;;;;;;;;;;;;;;;;1036612;28;19914;-73
2024/03/22 01:29:46;;;;;;;;;;;;;;;;;;1037405;28;19909;-73
2024/03/22 01:30:16;;;;;;;;;;;;;;;;;;1036758;28;19942;-73
2024/03/22 01:30:46;;;;;;;;;;;;;;;;;;1033246;28;19948;-73
2024/03/22 01:31:16;;;;;;;;;;;;;;;;;;1038203;28;19991;-73
2024/03/22 01:31:47;;;;;;;;;;;;;;;;;;1041828;28;19912;-73
2024/03/22 01:32:17;;;;;;;;;;;;;;;;;;1038093;28;19909;-73
2024/03/22 01:32:47;;;;;;;;;;;;;;;;;;1037762;28;19913;-73
2024/03/22 01:33:17;;;;;;;;;;;;;;;;;;1038851;28;19909;-73
2024/03/22 01:33:47;;;;;;;;;;;;;;;;;;1037699;28;19909;-73
2024/03/22 01:34:18;;;;;;;;;;;;;;;;;;1042800;28;19909;-73
2024/03/22 01:34:48;;;;;;;;;;;;;;;;;;1043783;28;19945;-73
2024/03/22 01:35:18;;;;;;;;;;;;;;;;;;1042029;28;19908;-73
2024/03/22 01:35:48;;;;;;;;;;;;;;;;;;1040514;28;19913;-73
2024/03/22 01:36:19;;;;;;;;;;;;;;;;;;1041553;28;19916;-73
2024/03/22 01:36:49;;;;;;;;;;;;;;;;;;1042685;28;19932;-73
2024/03/22 01:37:19;;;;;;;;;;;;;;;;;;1037803;28;19913;-72
2024/03/22 01:37:49;;;;;;;;;;;;;;;;;;1043461;28;19913;-73
2024/03/22 01:38:20;;;;;;;;;;;;;;;;;;1041808;28;19923;-73
2024/03/22 01:38:50;;;;;;;;;;;;;;;;;;1042347;28;19908;-73
2024/03/22 01:39:23;;;;;;;;;;;;;;;;;;1042545;28;19908;-73
2024/03/22 01:39:53;;;;;;;;;;;;;;;;;;1039012;28;19909;-73
2024/03/22 01:40:23;;;;;;;;;;;;;;;;;;1033667;28;20420;-73
2024/03/22 01:40:54;;;;;;;;;;;;;;;;;;1034119;28;20461;-73
2024/03/22 01:41:25;;;;;;;;;;;;;;;;;;1036907;28;19916;-73
2024/03/22 01:41:55;;;;;;;;;;;;;;;;;;1037300;28;19924;-73
2024/03/22 01:42:25;;;;;;;;;;;;;;;;;;1043460;28;19962;-73
2024/03/22 01:42:55;;;;;;;;;;;;;;;;;;1042839;28;19916;-73
2024/03/22 01:43:26;;;;;;;;;;;;;;;;;;1037835;28;19920;-73
2024/03/22 01:43:56;;;;;;;;;;;;;;;;;;1042344;28;19912;-73
2024/03/22 01:44:26;;;;;;;;;;;;;;;;;;1040916;28;20323;-73
2024/03/22 01:44:57;;;;;;;;;;;;;;;;;;1042460;28;20011;-73
2024/03/22 01:45:27;;;;;;;;;;;;;;;;;;1043008;28;19944;-73
2024/03/22 01:45:57;;;;;;;;;;;;;;;;;;1045906;28;19908;-73
2024/03/22 01:46:27;;;;;;;;;;;;;;;;;;1044204;28;19919;-73
2024/03/22 01:46:57;;;;;;;;;;;;;;;;;;1046906;28;19916;-73
2024/03/22 01:47:28;;;;;;;;;;;;;;;;;;1041656;28;19955;-73
2024/03/22 01:47:59;;;;;;;;;;;;;;;;;;1038860;28;19982;-73
2024/03/22 01:48:29;;;;;;;;;;;;;;;;;;1040558;28;19913;-73
2024/03/22 01:49:00;;;;;;;;;;;;;;;;;;1042861;28;19909;-73
2024/03/22 01:49:30;;;;;;;;;;;;;;;;;;1040348;28;19920;-73
2024/03/22 01:50:01;;;;;;;;;;;;;;;;;;1042327;28;19939;-73
2024/03/22 01:50:31;;;;;;;;;;;;;;;;;;1040820;28;19909;-73
2024/03/22 01:51:01;;;;;;;;;;;;;;;;;;1042706;28;19909;-74
2024/03/22 01:51:32;;;;;;;;;;;;;;;;;;1041371;28;20510;-74
2024/03/22 01:52:03;;;;;;;;;;;;;;;;;;1041850;28;19909;-74
2024/03/22 01:52:33;;;;;;;;;;;;;;;;;;1041216;28;20335;-73
2024/03/22 01:53:03;;;;;;;;;;;;;;;;;;1038290;28;19913;-73
2024/03/22 01:53:33;;;;;;;;;;;;;;;;;;1042300;28;19908;-73
2024/03/22 01:54:04;;;;;;;;;;;;;;;;;;1039532;28;19963;-73
2024/03/22 01:54:34;;;;;;;;;;;;;;;;;;1042111;28;19909;-73
2024/03/22 01:55:06;;;;;;;;;;;;;;;;;;1040749;28;19908;-73
2024/03/22 01:55:36;;;;;;;;;;;;;;;;;;1041829;28;19916;-73
2024/03/22 01:56:07;;;;;;;;;;;;;;;;;;1040991;28;20368;-73
2024/03/22 01:56:37;;;;;;;;;;;;;;;;;;1045163;28;19908;-73
2024/03/22 01:57:07;;;;;;;;;;;;;;;;;;1042093;28;19944;-73
2024/03/22 01:57:37;;;;;;;;;;;;;;;;;;1042557;28;19915;-73
2024/03/22 01:58:08;;;;;;;;;;;;;;;;;;1041655;28;19916;-73
2024/03/22 01:58:38;;;;;;;;;;;;;;;;;;1042309;28;20262;-73
2024/03/22 01:59:08;;;;;;;;;;;;;;;;;;1045436;28;20251;-73
2024/03/22 01:59:39;;;;;;;;;;;;;;;;;;1045900;28;19909;-73
2024/03/22 02:00:09;;;;;;;;;;;;;;;;;;1045859;28;19913;-73
2024/03/22 02:00:39;;;;;;;;;;;;;;;;;;1045778;28;19954;-74
2024/03/22 02:01:10;;;;;;;;;;;;;;;;;;1041359;28;20023;-74
2024/03/22 02:01:40;;;;;;;;;;;;;;;;;;1042263;28;20003;-74
2024/03/22 02:02:11;;;;;;;;;;;;;;;;;;1038699;28;19909;-74
2024/03/22 02:02:41;;;;;;;;;;;;;;;;;;1033640;28;19909;-74
2024/03/22 02:03:11;;;;;;;;;;;;;;;;;;1040200;28;19932;-74
2024/03/22 02:03:42;;;;;;;;;;;;;;;;;;1036141;28;19916;-74
2024/03/22 02:04:14;;;;;;;;;;;;;;;;;;1036903;28;19909;-74
2024/03/22 02:04:44;;;;;;;;;;;;;;;;;;1041219;28;19909;-74
2024/03/22 02:05:15;;;;;;;;;;;;;;;;;;1040917;28;20007;-74
2024/03/22 02:05:46;;;;;;;;;;;;;;;;;;1044952;28;20172;-74
2024/03/22 02:06:16;;;;;;;;;;;;;;;;;;1043642;28;20367;-74
2024/03/22 02:06:46;;;;;;;;;;;;;;;;;;1039671;28;19992;-74
2024/03/22 02:07:17;;;;;;;;;;;;;;;;;;1042075;28;19920;-74
2024/03/22 02:07:47;;;;;;;;;;;;;;;;;;1039109;28;19913;-74
2024/03/22 02:08:17;;;;;;;;;;;;;;;;;;1039072;28;19909;-74
2024/03/22 02:08:48;;;;;;;;;;;;;;;;;;1039304;28;19905;-74
2024/03/22 02:09:19;;;;;;;;;;;;;;;;;;1038993;28;19963;-74
2024/03/22 02:09:49;;;;;;;;;;;;;;;;;;1038303;28;19916;-74
2024/03/22 02:10:20;;;;;;;;;;;;;;;;;;1041860;28;19994;-73
2024/03/22 02:10:50;;;;;;;;;;;;;;;;;;1042014;28;19963;-74
2024/03/22 02:11:20;;;;;;;;;;;;;;;;;;1041748;28;20380;-74
2024/03/22 02:11:51;;;;;;;;;;;;;;;;;;1041800;28;19909;-74
2024/03/22 02:12:21;;;;;;;;;;;;;;;;;;1041072;28;19909;-74
2024/03/22 02:12:51;;;;;;;;;;;;;;;;;;1040268;28;19942;-74
2024/03/22 02:13:21;;;;;;;;;;;;;;;;;;1036531;28;19917;-74
2024/03/22 02:13:52;;;;;;;;;;;;;;;;;;1041335;28;19916;-74
2024/03/22 02:14:22;;;;;;;;;;;;;;;;;;1035770;28;19924;-74
2024/03/22 02:14:52;;;;;;;;;;;;;;;;;;1038999;28;20325;-74
2024/03/22 02:15:22;;;;;;;;;;;;;;;;;;1043665;28;19988;-75
2024/03/22 02:15:53;;;;;;;;;;;;;;;;;;1037707;28;19909;-74
2024/03/22 02:16:23;;;;;;;;;;;;;;;;;;1041952;28;20253;-74
2024/03/22 02:16:53;;;;;;;;;;;;;;;;;;1037938;28;20379;-74
2024/03/22 02:17:24;;;;;;;;;;;;;;;;;;1038262;28;20055;-74
2024/03/22 02:17:55;;;;;;;;;;;;;;;;;;1041058;28;19909;-74
2024/03/22 02:18:25;;;;;;;;;;;;;;;;;;1040412;28;21009;-74
2024/03/22 02:18:55;;;;;;;;;;;;;;;;;;1045671;28;19912;-74
2024/03/22 02:19:25;;;;;;;;;;;;;;;;;;1045985;28;20402;-74
2024/03/22 02:19:56;;;;;;;;;;;;;;;;;;1040928;28;20546;-74
2024/03/22 02:20:26;;;;;;;;;;;;;;;;;;1041154;28;20312;-74
2024/03/22 02:20:56;;;;;;;;;;;;;;;;;;1041289;28;19917;-74
2024/03/22 02:21:26;;;;;;;;;;;;;;;;;;1039634;28;19917;-74
2024/03/22 02:21:57;;;;;;;;;;;;;;;;;;1042652;28;19908;-74
2024/03/22 02:22:27;;;;;;;;;;;;;;;;;;1035842;28;19999;-74
2024/03/22 02:22:57;;;;;;;;;;;;;;;;;;1036327;28;19963;-74
2024/03/22 02:23:28;;;;;;;;;;;;;;;;;;1040233;28;20400;-74
2024/03/22 02:23:58;;;;;;;;;;;;;;;;;;1042378;28;20393;-74
2024/03/22 02:24:28;;;;;;;;;;;;;;;;;;1041328;28;19915;-74
2024/03/22 02:24:59;;;;;;;;;;;;;;;;;;1040432;28;19913;-74
2024/03/22 02:25:29;;;;;;;;;;;;;;;;;;1037653;28;19964;-74
2024/03/22 02:25:59;;;;;;;;;;;;;;;;;;1034210;28;20068;-75
2024/03/22 02:26:30;;;;;;;;;;;;;;;;;;1032426;28;19914;-75
2024/03/22 02:27:00;;;;;;;;;;;;;;;;;;1031223;28;20458;-75
2024/03/22 02:27:31;;;;;;;;;;;;;;;;;;1036607;28;19915;-75
2024/03/22 02:28:01;;;;;;;;;;;;;;;;;;1036784;28;20343;-75
2024/03/22 02:28:32;;;;;;;;;;;;;;;;;;1037665;28;19944;-75
2024/03/22 02:29:02;;;;;;;;;;;;;;;;;;1036255;28;19909;-75
2024/03/22 02:29:33;;;;;;;;;;;;;;;;;;1033747;28;19964;-75
2024/03/22 02:30:03;;;;;;;;;;;;;;;;;;1033815;28;19972;-75
2024/03/22 02:30:33;;;;;;;;;;;;;;;;;;1037197;28;19909;-75
2024/03/22 02:31:03;;;;;;;;;;;;;;;;;;1034265;28;20362;-75
2024/03/22 02:31:34;;;;;;;;;;;;;;;;;;1039613;28;19916;-75
2024/03/22 02:32:04;;;;;;;;;;;;;;;;;;1037128;28;19917;-75
2024/03/22 02:32:34;;;;;;;;;;;;;;;;;;1032377;28;19916;-75
2024/03/22 02:33:05;;;;;;;;;;;;;;;;;;1034536;28;20000;-75
2024/03/22 02:33:35;;;;;;;;;;;;;;;;;;1034267;28;20046;-75
2024/03/22 02:34:06;;;;;;;;;;;;;;;;;;1033561;28;19914;-75
2024/03/22 02:34:36;;;;;;;;;;;;;;;;;;1034681;28;19909;-75
2024/03/22 02:35:06;;;;;;;;;;;;;;;;;;1032885;28;19925;-75
2024/03/22 02:35:36;;;;;;;;;;;;;;;;;;1034382;28;19916;-75
2024/03/22 02:36:07;;;;;;;;;;;;;;;;;;1035278;28;19910;-75
2024/03/22 02:36:37;;;;;;;;;;;;;;;;;;1036175;28;19999;-75
2024/03/22 02:37:07;;;;;;;;;;;;;;;;;;1037734;28;19913;-75
2024/03/22 02:37:38;;;;;;;;;;;;;;;;;;1041596;28;19913;-75
2024/03/22 02:38:08;;;;;;;;;;;;;;;;;;1037791;28;19917;-75
2024/03/22 02:38:39;;;;;;;;;;;;;;;;;;1036166;28;19917;-75
2024/03/22 02:39:09;;;;;;;;;;;;;;;;;;1034849;28;19964;-75
2024/03/22 02:39:39;;;;;;;;;;;;;;;;;;1033464;28;19913;-75
2024/03/22 02:40:11;;;;;;;;;;;;;;;;;;1037742;28;19910;-76
2024/03/22 02:40:41;;;;;;;;;;;;;;;;;;1037340;28;19924;-75
2024/03/22 02:41:12;;;;;;;;;;;;;;;;;;1037510;28;20288;-75
2024/03/22 02:41:43;;;;;;;;;;;;;;;;;;1039153;28;20349;-75
2024/03/22 02:42:13;;;;;;;;;;;;;;;;;;1039575;28;19983;-75
2024/03/22 02:42:45;;;;;;;;;;;;;;;;;;1040667;28;19912;-75
2024/03/22 02:43:18;;;;;;;;;;;;;;;;;;1044372;28;19909;-75
2024/03/22 02:43:49;;;;;;;;;;;;;;;;;;1039306;28;19920;-75
2024/03/22 02:44:20;;;;;;;;;;;;;;;;;;1041480;28;20395;-75
2024/03/22 02:44:50;;;;;;;;;;;;;;;;;;1048056;28;19916;-75
2024/03/22 02:45:21;;;;;;;;;;;;;;;;;;1044617;28;19913;-75
2024/03/22 02:45:51;;;;;;;;;;;;;;;;;;1043775;28;19913;-75
2024/03/22 02:46:23;;;;;;;;;;;;;;;;;;1040460;28;20007;-75
2024/03/22 02:46:53;;;;;;;;;;;;;;;;;;1037689;28;19901;-75
2024/03/22 02:47:24;;;;;;;;;;;;;;;;;;1034007;28;20400;-74
2024/03/22 02:47:54;;;;;;;;;;;;;;;;;;1040433;28;20361;-75
2024/03/22 02:48:25;;;;;;;;;;;;;;;;;;1045991;28;19935;-75
2024/03/22 02:48:55;;;;;;;;;;;;;;;;;;1042680;28;19917;-75
2024/03/22 02:49:25;;;;;;;;;;;;;;;;;;1040147;28;20636;-75
2024/03/22 02:49:58;;;;;;;;;;;;;;;;;;1040242;28;19912;-75
2024/03/22 02:50:29;;;;;;;;;;;;;;;;;;1038349;28;19939;-74
2024/03/22 02:50:59;;;;;;;;;;;;;;;;;;1039296;28;19924;-75
2024/03/22 02:51:29;;;;;;;;;;;;;;;;;;1038851;28;19953;-76
2024/03/22 02:52:00;;;;;;;;;;;;;;;;;;1040401;28;19912;-75
2024/03/22 02:52:30;;;;;;;;;;;;;;;;;;1039934;28;20038;-75
2024/03/22 02:53:01;;;;;;;;;;;;;;;;;;1035819;28;19914;-75
2024/03/22 02:53:31;;;;;;;;;;;;;;;;;;1037976;28;19909;-75
2024/03/22 02:54:01;;;;;;;;;;;;;;;;;;1036731;28;19994;-75
2024/03/22 02:54:32;;;;;;;;;;;;;;;;;;1035411;28;20000;-75
2024/03/22 02:55:02;;;;;;;;;;;;;;;;;;1039142;28;19931;-75
2024/03/22 02:55:32;;;;;;;;;;;;;;;;;;1037278;28;21553;-75
2024/03/22 02:56:02;;;;;;;;;;;;;;;;;;1038060;28;19920;-75
2024/03/22 02:56:33;;;;;;;;;;;;;;;;;;1037386;28;19917;-74
2024/03/22 02:57:03;;;;;;;;;;;;;;;;;;1035290;28;19917;-74
2024/03/22 02:57:33;;;;;;;;;;;;;;;;;;1029965;28;19965;-74
2024/03/22 02:58:04;;;;;;;;;;;;;;;;;;1029227;28;19917;-76
2024/03/22 02:58:35;;;;;;;;;;;;;;;;;;1026404;28;20436;-74
2024/03/22 02:59:06;;;;;;;;;;;;;;;;;;1026843;28;19976;-74
2024/03/22 02:59:36;;;;;;;;;;;;;;;;;;1030120;28;19964;-74
2024/03/22 03:00:09;;;;;;;;;;;;;;;;;;1031683;28;19913;-74
2024/03/22 03:00:39;;;;;;;;;;;;;;;;;;1035429;28;19917;-74
2024/03/22 03:01:10;;;;;;;;;;;;;;;;;;1037127;28;19917;-74
2024/03/22 03:01:40;;;;;;;;;;;;;;;;;;1035904;28;19917;-74
2024/03/22 03:02:10;;;;;;;;;;;;;;;;;;1038962;28;19996;-74
2024/03/22 03:02:41;;;;;;;;;;;;;;;;;;1034214;28;19917;-74
2024/03/22 03:03:11;;;;;;;;;;;;;;;;;;1034305;28;19948;-74
2024/03/22 03:03:41;;;;;;;;;;;;;;;;;;1036564;28;19974;-74
2024/03/22 03:04:13;;;;;;;;;;;;;;;;;;1033761;28;19913;-74
2024/03/22 03:04:43;;;;;;;;;;;;;;;;;;1038207;28;20447;-75
2024/03/22 03:05:13;;;;;;;;;;;;;;;;;;1032821;28;20364;-74
2024/03/22 03:05:44;;;;;;;;;;;;;;;;;;1033844;28;20036;-74
2024/03/22 03:06:15;;;;;;;;;;;;;;;;;;1028944;28;20103;-74
2024/03/22 03:06:45;;;;;;;;;;;;;;;;;;1031439;28;20271;-74
2024/03/22 03:07:16;;;;;;;;;;;;;;;;;;1034729;28;19913;-74
2024/03/22 03:07:47;;;;;;;;;;;;;;;;;;1040804;28;19909;-74
2024/03/22 03:08:17;;;;;;;;;;;;;;;;;;1038033;28;19912;-74
2024/03/22 03:08:47;;;;;;;;;;;;;;;;;;1037092;28;19909;-74
2024/03/22 03:09:18;;;;;;;;;;;;;;;;;;1035029;28;19991;-74
2024/03/22 03:09:48;;;;;;;;;;;;;;;;;;1034113;28;19943;-74
2024/03/22 03:10:19;;;;;;;;;;;;;;;;;;1032006;28;20457;-74
2024/03/22 03:10:49;;;;;;;;;;;;;;;;;;1033188;28;20308;-74
2024/03/22 03:11:20;;;;;;;;;;;;;;;;;;1038759;28;19908;-74
2024/03/22 03:11:50;;;;;;;;;;;;;;;;;;1035826;28;19910;-75
2024/03/22 03:12:21;;;;;;;;;;;;;;;;;;1032278;28;19909;-75
2024/03/22 03:12:52;;;;;;;;;;;;;;;;;;1037735;28;19909;-75
2024/03/22 03:13:22;;;;;;;;;;;;;;;;;;1031224;28;19910;-75
2024/03/22 03:13:53;;;;;;;;;;;;;;;;;;1035346;28;20404;-75
2024/03/22 03:14:23;;;;;;;;;;;;;;;;;;1037318;28;20324;-75
2024/03/22 03:14:53;;;;;;;;;;;;;;;;;;1039466;28;20930;-75
2024/03/22 03:15:24;;;;;;;;;;;;;;;;;;1038367;28;19915;-75
2024/03/22 03:15:54;;;;;;;;;;;;;;;;;;1034505;28;19952;-74
2024/03/22 03:16:24;;;;;;;;;;;;;;;;;;1035453;28;19919;-74
2024/03/22 03:16:55;;;;;;;;;;;;;;;;;;1034297;28;20000;-75
2024/03/22 03:17:25;;;;;;;;;;;;;;;;;;1036438;28;20055;-74
2024/03/22 03:17:56;;;;;;;;;;;;;;;;;;1040455;28;20343;-74
2024/03/22 03:18:26;;;;;;;;;;;;;;;;;;1039999;28;20311;-75
2024/03/22 03:18:57;;;;;;;;;;;;;;;;;;1041112;28;19931;-75
2024/03/22 03:19:28;;;;;;;;;;;;;;;;;;1037006;28;19908;-75
2024/03/22 03:19:58;;;;;;;;;;;;;;;;;;1037126;28;19917;-75
2024/03/22 03:20:28;;;;;;;;;;;;;;;;;;1035082;28;20673;-75
2024/03/22 03:20:59;;;;;;;;;;;;;;;;;;1035598;28;20396;-75
2024/03/22 03:21:29;;;;;;;;;;;;;;;;;;1038948;28;19967;-75
2024/03/22 03:22:01;;;;;;;;;;;;;;;;;;1042723;28;20482;-75
2024/03/22 03:22:31;;;;;;;;;;;;;;;;;;1039068;28;21145;-75
2024/03/22 03:23:02;;;;;;;;;;;;;;;;;;1034786;28;19913;-75
2024/03/22 03:23:32;;;;;;;;;;;;;;;;;;1037608;28;19913;-76
2024/03/22 03:24:03;;;;;;;;;;;;;;;;;;1032616;28;20486;-75
2024/03/22 03:24:34;;;;;;;;;;;;;;;;;;1035452;28;19909;-75
2024/03/22 03:25:04;;;;;;;;;;;;;;;;;;1036265;28;20324;-75
2024/03/22 03:25:34;;;;;;;;;;;;;;;;;;1039793;28;19951;-75
2024/03/22 03:26:05;;;;;;;;;;;;;;;;;;1040654;28;19916;-75
2024/03/22 03:26:36;;;;;;;;;;;;;;;;;;1039473;28;19917;-75
2024/03/22 03:27:12;;;;;;;;;;;;;;;;;;1035427;28;19914;-75
2024/03/22 03:27:42;;;;;;;;;;;;;;;;;;1037809;28;19917;-75